Flight Track Log - Related Links

Times and Time Zones

All times are in EDT time to prevent confusion due to time zone crossing. See the N447SC flight status page for this flight to view local times or setup timezone preferences in your user account.

Time Position Orientation Groundspeed Altitude Reporting Facility
EDT Latitude Longitude Course Direction KTS MPH feet Rate Location/Type
Thu 12:25:57 AM 38.5833 -90.1833 26° Northeast 116 133 1,600  Level Gateway (St. Louis) TRACON
Thu 12:26:57 AM 38.5500 -90.2000 201° Southwest 123 142 2,500 850 Climbing Gateway (St. Louis) TRACON
Thu 12:27:57 AM 38.5333 -90.1667 123° Southeast 108 124 3,300 850 Climbing Gateway (St. Louis) TRACON
Thu 12:28:57 AM 38.5333 -90.1333 90° East 106 122 4,200 900 Climbing Gateway (St. Louis) TRACON
Thu 12:29:57 AM 38.5500 -90.1167 38° Northeast 98 113 5,100 881 Climbing Gateway (St. Louis) TRACON
Thu 12:30:46 AM 38.5667 -90.1000 38° Northeast 96 110 5,800 843 Climbing Gateway (St. Louis) TRACON
Thu 12:31:00 AM 38.8162 -89.9897 26° Northeast  Level FlightAware Approximate
Thu 12:31:58 AM 38.6000 -90.0833 21° North 99 114 6,800  Level Gateway (St. Louis) TRACON
Thu 12:32:58 AM 38.6167 -90.0667 38° Northeast 117 135 7,200 150 Climbing Gateway (St. Louis) TRACON
Thu 12:33:58 AM 38.6667 -90.0333 27° Northeast 154 177 7,100  Descending Gateway (St. Louis) TRACON
Thu 12:34:58 AM 38.7000 -90.0167 21° North 164 189 7,200 53 Climbing Gateway (St. Louis) TRACON
Thu 12:35:52 AM 38.7333 -90.0000 21° North 172 198 7,200 -53 Level Gateway (St. Louis) TRACON
Thu 12:36:52 AM 38.7833 -89.9667 27° Northeast 172 198 7,100  Descending Gateway (St. Louis) TRACON
Thu 12:37:52 AM 38.8333 -89.9333 27° Northeast 172 198 7,200 50 Climbing Gateway (St. Louis) TRACON
Thu 12:38:52 AM 38.8667 -89.9167 21° North 167 192 7,200 -50 Level Gateway (St. Louis) TRACON
Thu 12:39:52 AM 38.9167 -89.8833 27° Northeast 165 190 7,100  Descending Gateway (St. Louis) TRACON
Thu 12:40:22 AM 38.9322 -89.8783 14° North 166 191 7,200  Climbing Kansas City Center
Thu 12:41:22 AM 38.9725 -89.8519 27° Northeast 163 188 7,100 -50 Descending Kansas City Center
Thu 12:42:23 AM 39.0142 -89.8294 23° Northeast 162 186 7,100 -49 Level Kansas City Center
Thu 12:43:24 AM 39.0589 -89.7994 28° Northeast 167 192 7,000 -49 Descending Kansas City Center
Thu 12:44:25 AM 39.1017 -89.7789 20° North 164 189 7,000  Level Kansas City Center
Thu 12:45:26 AM 39.1422 -89.7525 27° Northeast 163 188 7,000  Level Kansas City Center
Thu 12:46:27 AM 39.1817 -89.7278 26° Northeast 163 188 7,000  Level Kansas City Center
Thu 12:47:27 AM 39.2228 -89.7039 24° Northeast 163 188 7,000  Level Kansas City Center
Thu 12:48:28 AM 39.2625 -89.6742 30° Northeast 165 190 7,000  Level Kansas City Center
Thu 12:49:29 AM 39.3053 -89.6500 24° Northeast 167 192 7,000  Level Kansas City Center
Thu 12:50:30 AM 39.3467 -89.6267 24° Northeast 164 189 7,000  Level Kansas City Center
Thu 12:51:30 AM 39.3875 -89.5986 28° Northeast 166 191 7,000  Level Kansas City Center
Thu 12:52:31 AM 39.4300 -89.5769 21° North 164 189 7,000  Level Kansas City Center
Thu 12:53:32 AM 39.4706 -89.5483 29° Northeast 166 191 7,000  Level Kansas City Center
Thu 12:54:33 AM 39.5119 -89.5239 24° Northeast 165 190 7,000  Level Kansas City Center
Thu 12:55:33 AM 39.5533 -89.4981 26° Northeast 164 189 7,000  Level Kansas City Center
Thu 12:56:34 AM 39.5925 -89.4686 30° Northeast 164 189 7,000  Level Kansas City Center
Thu 12:57:35 AM 39.6347 -89.4472 21° North 163 188 7,000  Level Kansas City Center
Thu 12:58:35 AM 39.6831 -89.4175 25° Northeast 161 185 7,000  Level Kansas City Center
Thu 12:59:36 AM 39.7200 -89.3947 25° Northeast 163 188 7,000  Level Kansas City Center
Thu 01:00:37 AM 39.7522 -89.3733 27° Northeast 163 188 7,000  Level Kansas City Center
Thu 01:01:37 AM 39.8003 -89.3381 29° Northeast 164 189 7,000 50 Level Kansas City Center
Thu 01:02:38 AM 39.8425 -89.3142 23° Northeast 166 191 7,100  Climbing Kansas City Center
Thu 01:03:39 AM 39.8847 -89.2858 27° Northeast 170 196 7,000 -50 Descending Kansas City Center
Thu 01:04:39 AM 39.9194 -89.2433 43° Northeast 180 207 7,000  Level Kansas City Center
Thu 01:05:40 AM 39.9469 -89.1900 56° Northeast 179 206 7,000  Level Kansas City Center
Thu 01:06:41 AM 39.9744 -89.1367 56° Northeast 178 205 7,000 -98 Level Kansas City Center
Thu 01:07:42 AM 40.0206 -89.0986 32° Northeast 170 196 6,800 -443 Descending Chicago Center
Thu 01:08:43 AM 40.0681 -89.0833 14° North 174 200 6,100 -694 Descending Chicago Center
Thu 01:09:43 AM 40.1139 -89.0650 17° North 173 199 5,400 -793 Descending Chicago Center
Thu 01:10:44 AM 40.1586 -89.0450 19° North 171 197 4,500 -893 Descending Chicago Center
Thu 01:11:44 AM 40.2028 -89.0278 17° North 168 193 3,600 -787 Descending Chicago Center
Thu 01:12:46 AM 40.2436 -89.0081 20° North 160 184 2,900 -298 Descending Chicago Center
Thu 01:13:45 AM 40.2806 -88.9933 17° North 146 168 3,000  Climbing Chicago Center
Thu 01:14:46 AM 40.3200 -88.9769 18° North 145 167 2,900 -248 Descending Chicago Center
Thu 01:15:46 AM 40.3611 -88.9594 18° North 152 175 2,500 -298 Descending Chicago Center
Thu 01:16:47 AM 40.3989 -88.9425 19° North 149 171 2,300 -446 Descending Chicago Center
Thu 01:17:47 AM 40.4308 -88.9300 17° North 138 159 1,600 -545 Descending Chicago Center
Thu 01:18:48 AM 40.4594 -88.9183 17° North 123 142 1,200 -393 Descending Chicago Center

Login

Don't have an account? Register now (free) for customized features, flight alerts, and more!